Cannon Air Force Base Clovis US
ICAO: KCVS
IATA: CVS
Category: Large
Scheduled Services: No

Elevation: 4295 ft
TransAlt. 18000 ft.

Airport Communications:
APP:125.5
ATIS:119.1
CLNC DEL:120.2
DEP:125.5
GND:121.9
PMSV METRO:34.46
COMD POST:38.13
PTD:139.6
TWR:120.4

KCVS Zoom In..

Runways:

(A) RW 04 length 10003 ft width 150 ft
ILS 108.50 / hdg 35

(B) RW 13 length 8196 ft width 150 ft
ILS 110.35 / hdg 125

(C) RW 22 length 10003 ft width 150 ft
ILS 109.70 / hdg 215

(D) RW 31 length 8196 ft width 150 ft
ILS 108.30 / hdg 305

Location; KCVS
Day. 25 / Time. 10.43 Zulu
* Altimeter: 30.31
* Temperature: 03° c. 37.4°f.
* Wind from: 030° Speed 23 kn with Gusts up to 31 kn.
Dewpoint: 03° c.
Visibility: 10 Statute Miles.
Clouds: Broken 1100 ft.
Clouds: Overcast 3600 ft.
Conditions: Light Rain.

KCVS 251043Z AUTO 03023G31KT 10SM -RA BKN011 OVC036 03/03 A3031 RMK AO2 CIG 010 RWY31 SLP242 CHINO RWY22 $


Wind From 030°
Speed 23 kn.

  YouTube Music Video
 
jpsmedia.com for Web Design  worldairports.se 2018   terms of use